sensor_id;sensor_type;location;lat;lon;timestamp;P1;durP1;ratioP1;P2;durP2;ratioP2
19733;SDS011;10018;51.230;7.860;2024-03-17T00:00:31;85.83;;;59.43;;
19733;SDS011;10018;51.230;7.860;2024-03-17T00:03:00;44.83;;;29.57;;
19733;SDS011;10018;51.230;7.860;2024-03-17T00:05:25;26.00;;;14.90;;
19733;SDS011;10018;51.230;7.860;2024-03-17T00:07:51;22.97;;;12.57;;
19733;SDS011;10018;51.230;7.860;2024-03-17T00:10:16;23.60;;;12.33;;
19733;SDS011;10018;51.230;7.860;2024-03-17T00:12:43;19.60;;;11.73;;
19733;SDS011;10018;51.230;7.860;2024-03-17T00:15:08;20.57;;;12.23;;
19733;SDS011;10018;51.230;7.860;2024-03-17T00:17:35;23.37;;;14.37;;
19733;SDS011;10018;51.230;7.860;2024-03-17T00:20:01;23.43;;;15.07;;
19733;SDS011;10018;51.230;7.860;2024-03-17T00:22:29;22.17;;;11.53;;
19733;SDS011;10018;51.230;7.860;2024-03-17T00:25:02;19.57;;;10.60;;
19733;SDS011;10018;51.230;7.860;2024-03-17T00:27:28;22.33;;;11.50;;
19733;SDS011;10018;51.230;7.860;2024-03-17T00:29:54;21.93;;;11.47;;
19733;SDS011;10018;51.230;7.860;2024-03-17T00:32:19;22.07;;;11.43;;
19733;SDS011;10018;51.230;7.860;2024-03-17T00:34:45;23.73;;;12.20;;
19733;SDS011;10018;51.230;7.860;2024-03-17T00:37:10;19.90;;;11.20;;
19733;SDS011;10018;51.230;7.860;2024-03-17T00:39:36;21.80;;;11.73;;
19733;SDS011;10018;51.230;7.860;2024-03-17T00:42:02;18.63;;;12.10;;
19733;SDS011;10018;51.230;7.860;2024-03-17T00:44:27;23.23;;;12.47;;
19733;SDS011;10018;51.230;7.860;2024-03-17T00:46:53;21.70;;;11.73;;
19733;SDS011;10018;51.230;7.860;2024-03-17T00:49:19;21.17;;;11.13;;
19733;SDS011;10018;51.230;7.860;2024-03-17T00:51:45;18.03;;;10.97;;
19733;SDS011;10018;51.230;7.860;2024-03-17T00:54:12;20.47;;;11.57;;
19733;SDS011;10018;51.230;7.860;2024-03-17T00:56:38;20.37;;;11.13;;
19733;SDS011;10018;51.230;7.860;2024-03-17T00:59:07;21.40;;;11.83;;
19733;SDS011;10018;51.230;7.860;2024-03-17T01:01:32;22.03;;;11.60;;
19733;SDS011;10018;51.230;7.860;2024-03-17T01:03:58;22.03;;;12.37;;
19733;SDS011;10018;51.230;7.860;2024-03-17T01:06:23;22.73;;;11.57;;
19733;SDS011;10018;51.230;7.860;2024-03-17T01:08:49;21.73;;;11.50;;
19733;SDS011;10018;51.230;7.860;2024-03-17T01:11:17;19.63;;;10.93;;
19733;SDS011;10018;51.230;7.860;2024-03-17T01:13:44;20.97;;;11.97;;
19733;SDS011;10018;51.230;7.860;2024-03-17T01:16:11;16.97;;;10.97;;
19733;SDS011;10018;51.230;7.860;2024-03-17T01:18:37;20.73;;;11.57;;
19733;SDS011;10018;51.230;7.860;2024-03-17T01:21:04;23.83;;;11.93;;
19733;SDS011;10018;51.230;7.860;2024-03-17T01:23:31;20.67;;;12.27;;
19733;SDS011;10018;51.230;7.860;2024-03-17T01:25:56;22.93;;;11.83;;
19733;SDS011;10018;51.230;7.860;2024-03-17T01:28:22;17.90;;;10.90;;
19733;SDS011;10018;51.230;7.860;2024-03-17T01:30:47;21.47;;;11.40;;
19733;SDS011;10018;51.230;7.860;2024-03-17T01:33:15;20.80;;;11.53;;
19733;SDS011;10018;51.230;7.860;2024-03-17T01:35:42;18.87;;;10.73;;
19733;SDS011;10018;51.230;7.860;2024-03-17T01:38:08;22.47;;;11.60;;
19733;SDS011;10018;51.230;7.860;2024-03-17T01:40:35;18.67;;;11.07;;
19733;SDS011;10018;51.230;7.860;2024-03-17T01:43:01;18.77;;;10.80;;
19733;SDS011;10018;51.230;7.860;2024-03-17T01:45:30;18.47;;;11.23;;
19733;SDS011;10018;51.230;7.860;2024-03-17T01:47:58;21.17;;;12.20;;
19733;SDS011;10018;51.230;7.860;2024-03-17T01:50:28;18.90;;;11.47;;
19733;SDS011;10018;51.230;7.860;2024-03-17T01:53:01;21.43;;;11.67;;
19733;SDS011;10018;51.230;7.860;2024-03-17T01:55:31;18.00;;;11.43;;
19733;SDS011;10018;51.230;7.860;2024-03-17T01:57:58;22.07;;;12.13;;
19733;SDS011;10018;51.230;7.860;2024-03-17T02:00:24;20.43;;;12.13;;
19733;SDS011;10018;51.230;7.860;2024-03-17T02:02:51;21.17;;;11.77;;
19733;SDS011;10018;51.230;7.860;2024-03-17T02:05:19;24.23;;;12.23;;
19733;SDS011;10018;51.230;7.860;2024-03-17T02:07:44;20.93;;;12.00;;
19733;SDS011;10018;51.230;7.860;2024-03-17T02:10:10;21.67;;;12.50;;
19733;SDS011;10018;51.230;7.860;2024-03-17T02:12:37;21.07;;;11.90;;
19733;SDS011;10018;51.230;7.860;2024-03-17T02:15:03;20.73;;;11.90;;
19733;SDS011;10018;51.230;7.860;2024-03-17T02:17:30;23.00;;;13.17;;
19733;SDS011;10018;51.230;7.860;2024-03-17T02:19:56;24.70;;;14.10;;
19733;SDS011;10018;51.230;7.860;2024-03-17T02:22:22;23.33;;;12.53;;
19733;SDS011;10018;51.230;7.860;2024-03-17T02:24:48;23.83;;;13.60;;
19733;SDS011;10018;51.230;7.860;2024-03-17T02:27:13;25.13;;;13.80;;
19733;SDS011;10018;51.230;7.860;2024-03-17T02:29:39;24.43;;;13.83;;
19733;SDS011;10018;51.230;7.860;2024-03-17T02:32:05;29.87;;;14.57;;
19733;SDS011;10018;51.230;7.860;2024-03-17T02:34:33;28.93;;;14.27;;
19733;SDS011;10018;51.230;7.860;2024-03-17T02:37:00;28.10;;;14.47;;
19733;SDS011;10018;51.230;7.860;2024-03-17T02:39:26;27.77;;;14.17;;
19733;SDS011;10018;51.230;7.860;2024-03-17T02:42:02;27.00;;;13.73;;
19733;SDS011;10018;51.230;7.860;2024-03-17T02:44:30;25.67;;;15.40;;
19733;SDS011;10018;51.230;7.860;2024-03-17T02:46:59;26.97;;;14.17;;
19733;SDS011;10018;51.230;7.860;2024-03-17T02:49:26;28.73;;;13.10;;
19733;SDS011;10018;51.230;7.860;2024-03-17T02:51:52;27.73;;;14.47;;
19733;SDS011;10018;51.230;7.860;2024-03-17T02:54:21;26.93;;;14.17;;
19733;SDS011;10018;51.230;7.860;2024-03-17T02:56:48;28.20;;;13.87;;
19733;SDS011;10018;51.230;7.860;2024-03-17T02:59:13;26.57;;;14.13;;
19733;SDS011;10018;51.230;7.860;2024-03-17T03:01:39;24.87;;;14.10;;
19733;SDS011;10018;51.230;7.860;2024-03-17T03:04:05;28.30;;;13.63;;
19733;SDS011;10018;51.230;7.860;2024-03-17T03:06:31;24.40;;;13.53;;
19733;SDS011;10018;51.230;7.860;2024-03-17T03:08:58;25.53;;;13.63;;
19733;SDS011;10018;51.230;7.860;2024-03-17T03:11:23;27.10;;;13.37;;
19733;SDS011;10018;51.230;7.860;2024-03-17T03:13:51;27.57;;;13.40;;
19733;SDS011;10018;51.230;7.860;2024-03-17T03:16:17;25.33;;;13.90;;
19733;SDS011;10018;51.230;7.860;2024-03-17T03:18:48;25.83;;;13.67;;
19733;SDS011;10018;51.230;7.860;2024-03-17T03:21:15;24.57;;;14.27;;
19733;SDS011;10018;51.230;7.860;2024-03-17T03:23:41;24.77;;;13.63;;
19733;SDS011;10018;51.230;7.860;2024-03-17T03:26:10;27.30;;;14.13;;
19733;SDS011;10018;51.230;7.860;2024-03-17T03:28:36;24.83;;;13.57;;
19733;SDS011;10018;51.230;7.860;2024-03-17T03:31:03;26.63;;;13.13;;
19733;SDS011;10018;51.230;7.860;2024-03-17T03:33:29;24.87;;;12.63;;
19733;SDS011;10018;51.230;7.860;2024-03-17T03:35:57;28.63;;;13.73;;
19733;SDS011;10018;51.230;7.860;2024-03-17T03:38:22;23.53;;;12.97;;
19733;SDS011;10018;51.230;7.860;2024-03-17T03:40:48;27.43;;;12.83;;
19733;SDS011;10018;51.230;7.860;2024-03-17T03:43:14;22.03;;;12.90;;
19733;SDS011;10018;51.230;7.860;2024-03-17T03:45:40;22.13;;;12.30;;
19733;SDS011;10018;51.230;7.860;2024-03-17T03:48:06;24.27;;;13.57;;
19733;SDS011;10018;51.230;7.860;2024-03-17T03:50:37;21.87;;;12.10;;
19733;SDS011;10018;51.230;7.860;2024-03-17T03:53:03;23.23;;;12.23;;
19733;SDS011;10018;51.230;7.860;2024-03-17T03:55:33;21.73;;;12.07;;
19733;SDS011;10018;51.230;7.860;2024-03-17T03:58:02;21.37;;;11.80;;
19733;SDS011;10018;51.230;7.860;2024-03-17T04:00:28;22.73;;;11.97;;
19733;SDS011;10018;51.230;7.860;2024-03-17T04:02:56;21.60;;;11.93;;
19733;SDS011;10018;51.230;7.860;2024-03-17T04:05:27;24.53;;;11.77;;
19733;SDS011;10018;51.230;7.860;2024-03-17T04:07:53;23.37;;;11.67;;
19733;SDS011;10018;51.230;7.860;2024-03-17T04:10:18;25.40;;;12.17;;
19733;SDS011;10018;51.230;7.860;2024-03-17T04:12:45;19.67;;;11.30;;
19733;SDS011;10018;51.230;7.860;2024-03-17T04:15:12;25.87;;;12.20;;
19733;SDS011;10018;51.230;7.860;2024-03-17T04:17:41;23.37;;;12.00;;
19733;SDS011;10018;51.230;7.860;2024-03-17T04:20:09;26.97;;;13.20;;
19733;SDS011;10018;51.230;7.860;2024-03-17T04:22:39;26.37;;;12.33;;
19733;SDS011;10018;51.230;7.860;2024-03-17T04:25:06;22.07;;;12.10;;
19733;SDS011;10018;51.230;7.860;2024-03-17T04:27:31;23.00;;;11.83;;
19733;SDS011;10018;51.230;7.860;2024-03-17T04:29:57;22.93;;;12.00;;
19733;SDS011;10018;51.230;7.860;2024-03-17T04:32:27;22.57;;;11.47;;
19733;SDS011;10018;51.230;7.860;2024-03-17T04:34:52;23.50;;;11.63;;
19733;SDS011;10018;51.230;7.860;2024-03-17T04:37:18;22.70;;;11.67;;
19733;SDS011;10018;51.230;7.860;2024-03-17T04:39:44;20.47;;;11.77;;
19733;SDS011;10018;51.230;7.860;2024-03-17T04:42:11;25.37;;;12.43;;
19733;SDS011;10018;51.230;7.860;2024-03-17T04:44:39;25.40;;;13.00;;
19733;SDS011;10018;51.230;7.860;2024-03-17T04:47:05;23.17;;;12.10;;
19733;SDS011;10018;51.230;7.860;2024-03-17T04:49:42;27.00;;;13.17;;
19733;SDS011;10018;51.230;7.860;2024-03-17T04:52:08;22.93;;;12.27;;
19733;SDS011;10018;51.230;7.860;2024-03-17T04:54:38;21.67;;;11.97;;
19733;SDS011;10018;51.230;7.860;2024-03-17T04:57:04;25.13;;;12.83;;
19733;SDS011;10018;51.230;7.860;2024-03-17T04:59:29;23.23;;;12.70;;
19733;SDS011;10018;51.230;7.860;2024-03-17T05:01:58;24.30;;;12.77;;
19733;SDS011;10018;51.230;7.860;2024-03-17T05:04:24;24.47;;;12.73;;
19733;SDS011;10018;51.230;7.860;2024-03-17T05:06:49;24.53;;;13.47;;
19733;SDS011;10018;51.230;7.860;2024-03-17T05:09:18;25.17;;;12.63;;
19733;SDS011;10018;51.230;7.860;2024-03-17T05:11:44;24.03;;;12.87;;
19733;SDS011;10018;51.230;7.860;2024-03-17T05:14:10;24.80;;;13.07;;
19733;SDS011;10018;51.230;7.860;2024-03-17T05:16:36;24.90;;;12.67;;
19733;SDS011;10018;51.230;7.860;2024-03-17T05:19:02;25.30;;;13.73;;
19733;SDS011;10018;51.230;7.860;2024-03-17T05:21:28;26.07;;;13.40;;
19733;SDS011;10018;51.230;7.860;2024-03-17T05:23:55;24.40;;;13.37;;
19733;SDS011;10018;51.230;7.860;2024-03-17T05:26:23;27.50;;;13.17;;
19733;SDS011;10018;51.230;7.860;2024-03-17T05:28:49;27.43;;;13.53;;
19733;SDS011;10018;51.230;7.860;2024-03-17T05:31:16;21.57;;;12.60;;
19733;SDS011;10018;51.230;7.860;2024-03-17T05:33:43;21.80;;;12.60;;
19733;SDS011;10018;51.230;7.860;2024-03-17T05:36:08;23.80;;;12.70;;
19733;SDS011;10018;51.230;7.860;2024-03-17T05:38:34;22.77;;;12.93;;
19733;SDS011;10018;51.230;7.860;2024-03-17T05:41:03;23.63;;;12.40;;
19733;SDS011;10018;51.230;7.860;2024-03-17T05:43:30;25.53;;;12.23;;
19733;SDS011;10018;51.230;7.860;2024-03-17T05:46:06;23.07;;;12.73;;
19733;SDS011;10018;51.230;7.860;2024-03-17T05:48:36;21.10;;;12.67;;
19733;SDS011;10018;51.230;7.860;2024-03-17T05:51:06;24.37;;;12.57;;
19733;SDS011;10018;51.230;7.860;2024-03-17T05:53:32;20.80;;;12.53;;
19733;SDS011;10018;51.230;7.860;2024-03-17T05:55:59;23.10;;;12.90;;
19733;SDS011;10018;51.230;7.860;2024-03-17T05:58:28;23.50;;;12.40;;
19733;SDS011;10018;51.230;7.860;2024-03-17T06:00:53;26.60;;;12.93;;
19733;SDS011;10018;51.230;7.860;2024-03-17T06:03:21;21.33;;;11.83;;
19733;SDS011;10018;51.230;7.860;2024-03-17T06:05:47;23.33;;;12.27;;
19733;SDS011;10018;51.230;7.860;2024-03-17T06:08:13;22.87;;;12.77;;
19733;SDS011;10018;51.230;7.860;2024-03-17T06:10:43;23.30;;;12.23;;
19733;SDS011;10018;51.230;7.860;2024-03-17T06:13:14;22.43;;;12.93;;
19733;SDS011;10018;51.230;7.860;2024-03-17T06:15:42;25.60;;;12.70;;
19733;SDS011;10018;51.230;7.860;2024-03-17T06:18:13;22.00;;;11.73;;
19733;SDS011;10018;51.230;7.860;2024-03-17T06:20:46;24.37;;;13.77;;
19733;SDS011;10018;51.230;7.860;2024-03-17T06:23:13;25.63;;;13.30;;
19733;SDS011;10018;51.230;7.860;2024-03-17T06:25:41;22.63;;;12.50;;
19733;SDS011;10018;51.230;7.860;2024-03-17T06:28:08;24.03;;;12.17;;
19733;SDS011;10018;51.230;7.860;2024-03-17T06:30:35;22.43;;;12.40;;
19733;SDS011;10018;51.230;7.860;2024-03-17T06:33:02;21.77;;;12.10;;
19733;SDS011;10018;51.230;7.860;2024-03-17T06:35:27;22.23;;;12.50;;
19733;SDS011;10018;51.230;7.860;2024-03-17T06:37:58;22.83;;;12.30;;
19733;SDS011;10018;51.230;7.860;2024-03-17T06:40:25;23.97;;;12.17;;
19733;SDS011;10018;51.230;7.860;2024-03-17T06:42:51;20.50;;;11.63;;
19733;SDS011;10018;51.230;7.860;2024-03-17T06:45:18;22.80;;;11.87;;
19733;SDS011;10018;51.230;7.860;2024-03-17T06:47:45;21.97;;;11.90;;
19733;SDS011;10018;51.230;7.860;2024-03-17T06:50:11;19.27;;;11.63;;
19733;SDS011;10018;51.230;7.860;2024-03-17T06:52:37;20.93;;;11.93;;
19733;SDS011;10018;51.230;7.860;2024-03-17T06:55:03;23.47;;;12.20;;
19733;SDS011;10018;51.230;7.860;2024-03-17T06:57:29;22.30;;;12.00;;
19733;SDS011;10018;51.230;7.860;2024-03-17T06:59:55;23.87;;;12.77;;
19733;SDS011;10018;51.230;7.860;2024-03-17T07:02:23;22.53;;;12.83;;
19733;SDS011;10018;51.230;7.860;2024-03-17T07:04:48;21.80;;;12.00;;
19733;SDS011;10018;51.230;7.860;2024-03-17T07:07:14;24.70;;;12.73;;
19733;SDS011;10018;51.230;7.860;2024-03-17T07:09:40;19.77;;;12.57;;
19733;SDS011;10018;51.230;7.860;2024-03-17T07:12:06;21.07;;;11.97;;
19733;SDS011;10018;51.230;7.860;2024-03-17T07:14:32;23.50;;;13.07;;
19733;SDS011;10018;51.230;7.860;2024-03-17T07:16:58;22.83;;;12.60;;
19733;SDS011;10018;51.230;7.860;2024-03-17T07:19:24;21.40;;;12.47;;
19733;SDS011;10018;51.230;7.860;2024-03-17T07:21:55;24.10;;;11.53;;
19733;SDS011;10018;51.230;7.860;2024-03-17T07:24:22;21.67;;;12.47;;
19733;SDS011;10018;51.230;7.860;2024-03-17T07:26:48;19.40;;;11.97;;
19733;SDS011;10018;51.230;7.860;2024-03-17T07:29:14;21.13;;;11.77;;
19733;SDS011;10018;51.230;7.860;2024-03-17T07:31:40;20.57;;;11.10;;
19733;SDS011;10018;51.230;7.860;2024-03-17T07:34:06;20.30;;;11.70;;
19733;SDS011;10018;51.230;7.860;2024-03-17T07:36:31;20.50;;;11.73;;
19733;SDS011;10018;51.230;7.860;2024-03-17T07:38:57;22.70;;;11.73;;
19733;SDS011;10018;51.230;7.860;2024-03-17T07:41:23;21.57;;;11.77;;
19733;SDS011;10018;51.230;7.860;2024-03-17T07:43:49;18.30;;;11.00;;
19733;SDS011;10018;51.230;7.860;2024-03-17T07:46:15;20.43;;;11.20;;
19733;SDS011;10018;51.230;7.860;2024-03-17T07:48:41;21.83;;;11.90;;
19733;SDS011;10018;51.230;7.860;2024-03-17T07:51:16;21.20;;;11.20;;
19733;SDS011;10018;51.230;7.860;2024-03-17T07:53:42;25.37;;;11.83;;
19733;SDS011;10018;51.230;7.860;2024-03-17T07:56:13;19.10;;;11.90;;
19733;SDS011;10018;51.230;7.860;2024-03-17T07:58:41;17.97;;;10.30;;
19733;SDS011;10018;51.230;7.860;2024-03-17T08:01:11;23.87;;;12.03;;
19733;SDS011;10018;51.230;7.860;2024-03-17T08:03:39;18.27;;;11.13;;
19733;SDS011;10018;51.230;7.860;2024-03-17T08:06:09;20.90;;;11.33;;
19733;SDS011;10018;51.230;7.860;2024-03-17T08:08:36;20.17;;;11.93;;
19733;SDS011;10018;51.230;7.860;2024-03-17T08:11:04;19.57;;;11.73;;
19733;SDS011;10018;51.230;7.860;2024-03-17T08:13:32;18.93;;;11.20;;
19733;SDS011;10018;51.230;7.860;2024-03-17T08:16:05;18.33;;;11.47;;
19733;SDS011;10018;51.230;7.860;2024-03-17T08:18:33;19.50;;;9.90;;
19733;SDS011;10018;51.230;7.860;2024-03-17T08:20:59;18.33;;;10.10;;
19733;SDS011;10018;51.230;7.860;2024-03-17T08:23:26;19.53;;;10.50;;
19733;SDS011;10018;51.230;7.860;2024-03-17T08:25:55;16.47;;;10.10;;
19733;SDS011;10018;51.230;7.860;2024-03-17T08:28:22;18.17;;;10.60;;
19733;SDS011;10018;51.230;7.860;2024-03-17T08:30:52;15.10;;;9.67;;
19733;SDS011;10018;51.230;7.860;2024-03-17T08:33:20;16.47;;;9.93;;
19733;SDS011;10018;51.230;7.860;2024-03-17T08:38:26;20.73;;;11.43;;
19733;SDS011;10018;51.230;7.860;2024-03-17T08:40:55;15.20;;;9.50;;
19733;SDS011;10018;51.230;7.860;2024-03-17T08:43:22;15.03;;;9.40;;
19733;SDS011;10018;51.230;7.860;2024-03-17T08:45:59;16.47;;;8.90;;
19733;SDS011;10018;51.230;7.860;2024-03-17T08:48:30;13.87;;;8.10;;
19733;SDS011;10018;51.230;7.860;2024-03-17T08:50:57;15.97;;;8.70;;
19733;SDS011;10018;51.230;7.860;2024-03-17T08:53:24;16.17;;;9.37;;
19733;SDS011;10018;51.230;7.860;2024-03-17T08:55:50;14.30;;;8.57;;
19733;SDS011;10018;51.230;7.860;2024-03-17T08:58:18;14.73;;;8.13;;
19733;SDS011;10018;51.230;7.860;2024-03-17T09:00:44;16.87;;;8.27;;
19733;SDS011;10018;51.230;7.860;2024-03-17T09:03:10;14.67;;;8.50;;
19733;SDS011;10018;51.230;7.860;2024-03-17T09:05:37;12.43;;;7.83;;
19733;SDS011;10018;51.230;7.860;2024-03-17T09:08:04;14.77;;;8.10;;
19733;SDS011;10018;51.230;7.860;2024-03-17T09:10:38;13.40;;;6.93;;
19733;SDS011;10018;51.230;7.860;2024-03-17T09:13:08;13.47;;;7.00;;
19733;SDS011;10018;51.230;7.860;2024-03-17T09:15:53;10.60;;;6.50;;
19733;SDS011;10018;51.230;7.860;2024-03-17T09:18:23;10.33;;;6.30;;
19733;SDS011;10018;51.230;7.860;2024-03-17T09:23:22;10.53;;;5.43;;
19733;SDS011;10018;51.230;7.860;2024-03-17T09:26:22;8.70;;;5.10;;
19733;SDS011;10018;51.230;7.860;2024-03-17T09:28:41;9.23;;;5.13;;
19733;SDS011;10018;51.230;7.860;2024-03-17T09:31:07;8.93;;;4.73;;
19733;SDS011;10018;51.230;7.860;2024-03-17T09:33:33;9.87;;;5.10;;
19733;SDS011;10018;51.230;7.860;2024-03-17T09:36:00;7.73;;;5.03;;
19733;SDS011;10018;51.230;7.860;2024-03-17T09:38:31;9.93;;;5.27;;
19733;SDS011;10018;51.230;7.860;2024-03-17T09:40:57;7.77;;;4.73;;
19733;SDS011;10018;51.230;7.860;2024-03-17T09:43:25;8.83;;;4.90;;
19733;SDS011;10018;51.230;7.860;2024-03-17T09:45:51;9.67;;;5.00;;
19733;SDS011;10018;51.230;7.860;2024-03-17T09:48:22;10.07;;;4.83;;
19733;SDS011;10018;51.230;7.860;2024-03-17T09:50:52;11.20;;;5.60;;
19733;SDS011;10018;51.230;7.860;2024-03-17T09:53:26;8.27;;;5.60;;
19733;SDS011;10018;51.230;7.860;2024-03-17T09:58:33;9.13;;;5.33;;
19733;SDS011;10018;51.230;7.860;2024-03-17T10:00:59;11.10;;;5.00;;
19733;SDS011;10018;51.230;7.860;2024-03-17T10:06:19;11.27;;;5.90;;
19733;SDS011;10018;51.230;7.860;2024-03-17T10:08:52;8.63;;;5.20;;
19733;SDS011;10018;51.230;7.860;2024-03-17T10:11:20;10.00;;;5.30;;
19733;SDS011;10018;51.230;7.860;2024-03-17T10:16:47;8.60;;;5.13;;
19733;SDS011;10018;51.230;7.860;2024-03-17T10:19:16;7.43;;;4.63;;
19733;SDS011;10018;51.230;7.860;2024-03-17T10:21:50;10.87;;;4.93;;
19733;SDS011;10018;51.230;7.860;2024-03-17T10:24:25;9.07;;;5.20;;
19733;SDS011;10018;51.230;7.860;2024-03-17T10:29:27;11.47;;;6.57;;
19733;SDS011;10018;51.230;7.860;2024-03-17T10:31:56;10.00;;;6.33;;
19733;SDS011;10018;51.230;7.860;2024-03-17T10:34:23;9.40;;;5.60;;
19733;SDS011;10018;51.230;7.860;2024-03-17T10:36:51;10.43;;;6.10;;
19733;SDS011;10018;51.230;7.860;2024-03-17T10:39:27;11.43;;;6.70;;
19733;SDS011;10018;51.230;7.860;2024-03-17T10:42:00;10.67;;;5.47;;
19733;SDS011;10018;51.230;7.860;2024-03-17T10:44:36;10.00;;;5.63;;
19733;SDS011;10018;51.230;7.860;2024-03-17T10:47:03;8.93;;;5.80;;
19733;SDS011;10018;51.230;7.860;2024-03-17T10:49:34;10.50;;;6.10;;
19733;SDS011;10018;51.230;7.860;2024-03-17T10:54:44;11.47;;;6.53;;
19733;SDS011;10018;51.230;7.860;2024-03-17T10:57:24;9.10;;;5.40;;
19733;SDS011;10018;51.230;7.860;2024-03-17T10:59:52;9.67;;;5.07;;
19733;SDS011;10018;51.230;7.860;2024-03-17T11:02:22;8.73;;;4.93;;
19733;SDS011;10018;51.230;7.860;2024-03-17T11:04:52;11.43;;;5.43;;
19733;SDS011;10018;51.230;7.860;2024-03-17T11:07:20;8.20;;;5.23;;
19733;SDS011;10018;51.230;7.860;2024-03-17T11:09:50;12.80;;;5.73;;
19733;SDS011;10018;51.230;7.860;2024-03-17T11:13:02;8.63;;;5.33;;
19733;SDS011;10018;51.230;7.860;2024-03-17T11:17:44;8.87;;;5.40;;
19733;SDS011;10018;51.230;7.860;2024-03-17T11:20:14;8.70;;;5.17;;
19733;SDS011;10018;51.230;7.860;2024-03-17T11:22:41;8.03;;;5.33;;
19733;SDS011;10018;51.230;7.860;2024-03-17T11:33:53;10.20;;;5.00;;
19733;SDS011;10018;51.230;7.860;2024-03-17T11:38:56;11.23;;;4.50;;
19733;SDS011;10018;51.230;7.860;2024-03-17T11:41:39;10.97;;;4.97;;
19733;SDS011;10018;51.230;7.860;2024-03-17T11:52:03;8.13;;;4.90;;
19733;SDS011;10018;51.230;7.860;2024-03-17T11:54:39;10.87;;;6.60;;
19733;SDS011;10018;51.230;7.860;2024-03-17T11:59:38;8.43;;;5.10;;
19733;SDS011;10018;51.230;7.860;2024-03-17T12:04:40;7.73;;;4.97;;
19733;SDS011;10018;51.230;7.860;2024-03-17T12:07:08;8.70;;;5.27;;
19733;SDS011;10018;51.230;7.860;2024-03-17T12:09:42;9.93;;;5.10;;
19733;SDS011;10018;51.230;7.860;2024-03-17T12:14:40;9.40;;;5.17;;
19733;SDS011;10018;51.230;7.860;2024-03-17T12:17:07;8.23;;;4.97;;
19733;SDS011;10018;51.230;7.860;2024-03-17T12:19:34;8.40;;;4.80;;
19733;SDS011;10018;51.230;7.860;2024-03-17T12:22:00;7.57;;;4.87;;
19733;SDS011;10018;51.230;7.860;2024-03-17T12:24:27;9.03;;;5.57;;
19733;SDS011;10018;51.230;7.860;2024-03-17T12:26:57;9.20;;;5.43;;
19733;SDS011;10018;51.230;7.860;2024-03-17T12:29:30;8.77;;;5.00;;
19733;SDS011;10018;51.230;7.860;2024-03-17T12:32:00;7.57;;;4.63;;
19733;SDS011;10018;51.230;7.860;2024-03-17T12:34:33;11.70;;;5.23;;
19733;SDS011;10018;51.230;7.860;2024-03-17T12:36:59;8.17;;;5.20;;
19733;SDS011;10018;51.230;7.860;2024-03-17T12:39:26;9.10;;;5.03;;
19733;SDS011;10018;51.230;7.860;2024-03-17T12:42:09;10.40;;;5.40;;
19733;SDS011;10018;51.230;7.860;2024-03-17T12:47:24;9.50;;;6.10;;
19733;SDS011;10018;51.230;7.860;2024-03-17T12:49:54;10.00;;;5.07;;
19733;SDS011;10018;51.230;7.860;2024-03-17T12:55:02;9.47;;;5.97;;
19733;SDS011;10018;51.230;7.860;2024-03-17T12:57:51;9.63;;;5.30;;
19733;SDS011;10018;51.230;7.860;2024-03-17T13:01:02;10.93;;;5.23;;
19733;SDS011;10018;51.230;7.860;2024-03-17T13:05:57;8.87;;;5.53;;
19733;SDS011;10018;51.230;7.860;2024-03-17T13:08:23;10.57;;;5.40;;
19733;SDS011;10018;51.230;7.860;2024-03-17T13:10:49;10.67;;;5.10;;
19733;SDS011;10018;51.230;7.860;2024-03-17T13:13:15;10.50;;;5.30;;
19733;SDS011;10018;51.230;7.860;2024-03-17T13:15:41;8.30;;;5.00;;
19733;SDS011;10018;51.230;7.860;2024-03-17T13:18:07;8.17;;;5.00;;
19733;SDS011;10018;51.230;7.860;2024-03-17T13:20:33;8.20;;;5.30;;
19733;SDS011;10018;51.230;7.860;2024-03-17T13:23:00;7.70;;;5.10;;
19733;SDS011;10018;51.230;7.860;2024-03-17T13:25:29;10.13;;;5.07;;
19733;SDS011;10018;51.230;7.860;2024-03-17T13:27:59;9.10;;;5.53;;
19733;SDS011;10018;51.230;7.860;2024-03-17T13:30:25;9.40;;;5.30;;
19733;SDS011;10018;51.230;7.860;2024-03-17T13:32:54;7.87;;;4.37;;
19733;SDS011;10018;51.230;7.860;2024-03-17T13:35:23;7.63;;;4.63;;
19733;SDS011;10018;51.230;7.860;2024-03-17T13:37:54;10.73;;;5.17;;
19733;SDS011;10018;51.230;7.860;2024-03-17T13:40:20;9.27;;;4.40;;
19733;SDS011;10018;51.230;7.860;2024-03-17T13:42:48;8.47;;;4.40;;
19733;SDS011;10018;51.230;7.860;2024-03-17T13:45:17;7.57;;;4.37;;
19733;SDS011;10018;51.230;7.860;2024-03-17T13:47:56;8.60;;;4.50;;
19733;SDS011;10018;51.230;7.860;2024-03-17T13:50:25;9.43;;;4.67;;
19733;SDS011;10018;51.230;7.860;2024-03-17T13:52:51;8.43;;;4.37;;
19733;SDS011;10018;51.230;7.860;2024-03-17T13:55:21;9.27;;;5.07;;
19733;SDS011;10018;51.230;7.860;2024-03-17T13:57:51;7.37;;;4.37;;
19733;SDS011;10018;51.230;7.860;2024-03-17T14:00:22;9.50;;;4.63;;
19733;SDS011;10018;51.230;7.860;2024-03-17T14:02:49;8.03;;;5.00;;
19733;SDS011;10018;51.230;7.860;2024-03-17T14:05:17;23.30;;;15.17;;
19733;SDS011;10018;51.230;7.860;2024-03-17T14:07:44;6.87;;;4.47;;
19733;SDS011;10018;51.230;7.860;2024-03-17T14:10:10;7.33;;;3.60;;
19733;SDS011;10018;51.230;7.860;2024-03-17T14:12:38;8.23;;;6.67;;
19733;SDS011;10018;51.230;7.860;2024-03-17T14:15:07;6.20;;;3.50;;
19733;SDS011;10018;51.230;7.860;2024-03-17T14:17:43;5.00;;;2.73;;
19733;SDS011;10018;51.230;7.860;2024-03-17T14:20:10;6.23;;;3.63;;
19733;SDS011;10018;51.230;7.860;2024-03-17T14:22:38;7.50;;;4.63;;
19733;SDS011;10018;51.230;7.860;2024-03-17T14:25:12;8.00;;;4.60;;
19733;SDS011;10018;51.230;7.860;2024-03-17T14:27:49;5.60;;;3.80;;
19733;SDS011;10018;51.230;7.860;2024-03-17T14:30:16;9.50;;;6.07;;
19733;SDS011;10018;51.230;7.860;2024-03-17T14:32:43;8.27;;;3.73;;
19733;SDS011;10018;51.230;7.860;2024-03-17T14:35:11;8.60;;;4.13;;
19733;SDS011;10018;51.230;7.860;2024-03-17T14:37:39;7.60;;;4.37;;
19733;SDS011;10018;51.230;7.860;2024-03-17T14:40:07;14.13;;;4.40;;
19733;SDS011;10018;51.230;7.860;2024-03-17T14:42:40;7.33;;;4.03;;
19733;SDS011;10018;51.230;7.860;2024-03-17T14:45:06;7.23;;;3.80;;
19733;SDS011;10018;51.230;7.860;2024-03-17T14:47:33;7.37;;;4.00;;
19733;SDS011;10018;51.230;7.860;2024-03-17T14:49:58;12.37;;;8.87;;
19733;SDS011;10018;51.230;7.860;2024-03-17T14:52:24;9.70;;;5.93;;
19733;SDS011;10018;51.230;7.860;2024-03-17T14:54:51;6.77;;;4.73;;
19733;SDS011;10018;51.230;7.860;2024-03-17T14:57:19;6.50;;;3.73;;
19733;SDS011;10018;51.230;7.860;2024-03-17T14:59:45;6.10;;;3.47;;
19733;SDS011;10018;51.230;7.860;2024-03-17T15:02:11;10.17;;;7.27;;
19733;SDS011;10018;51.230;7.860;2024-03-17T15:04:36;8.40;;;3.17;;
19733;SDS011;10018;51.230;7.860;2024-03-17T15:07:02;6.87;;;2.80;;
19733;SDS011;10018;51.230;7.860;2024-03-17T15:09:27;6.73;;;4.20;;
19733;SDS011;10018;51.230;7.860;2024-03-17T15:11:53;9.60;;;3.53;;
19733;SDS011;10018;51.230;7.860;2024-03-17T15:14:19;9.83;;;8.17;;
19733;SDS011;10018;51.230;7.860;2024-03-17T15:16:45;7.47;;;3.83;;
19733;SDS011;10018;51.230;7.860;2024-03-17T15:19:10;8.03;;;4.00;;
19733;SDS011;10018;51.230;7.860;2024-03-17T15:21:36;7.17;;;4.40;;
19733;SDS011;10018;51.230;7.860;2024-03-17T15:24:02;7.60;;;4.50;;
19733;SDS011;10018;51.230;7.860;2024-03-17T15:26:28;8.67;;;4.00;;
19733;SDS011;10018;51.230;7.860;2024-03-17T15:28:54;9.50;;;4.60;;
19733;SDS011;10018;51.230;7.860;2024-03-17T15:31:20;8.03;;;4.10;;